sensor_id;sensor_type;location;lat;lon;timestamp;pressure;altitude;pressure_sealevel;temperature;humidity
49759;BME280;35654;46.080;11.118;2022-08-21T00:00:10;99194.88;;;19.49;72.50
49759;BME280;35654;46.080;11.118;2022-08-21T00:02:36;99192.09;;;19.49;72.35
49759;BME280;35654;46.080;11.118;2022-08-21T00:05:03;99203.19;;;19.49;71.53
49759;BME280;35654;46.080;11.118;2022-08-21T00:07:29;99199.97;;;19.47;70.65
49759;BME280;35654;46.080;11.118;2022-08-21T00:09:54;99195.50;;;19.43;70.78
49759;BME280;35654;46.080;11.118;2022-08-21T00:12:20;99192.16;;;19.37;70.65
49759;BME280;35654;46.080;11.118;2022-08-21T00:14:46;99201.66;;;19.36;70.96
49759;BME280;35654;46.080;11.118;2022-08-21T00:17:11;99196.44;;;19.35;71.74
49759;BME280;35654;46.080;11.118;2022-08-21T00:19:37;99191.69;;;19.35;71.91
49759;BME280;35654;46.080;11.118;2022-08-21T00:22:03;99193.13;;;19.29;72.85
49759;BME280;35654;46.080;11.118;2022-08-21T00:24:28;99199.66;;;19.21;73.39
49759;BME280;35654;46.080;11.118;2022-08-21T00:26:54;99203.13;;;19.18;74.04
49759;BME280;35654;46.080;11.118;2022-08-21T00:29:20;99189.25;;;19.18;74.23
49759;BME280;35654;46.080;11.118;2022-08-21T00:31:45;99195.72;;;19.22;73.71
49759;BME280;35654;46.080;11.118;2022-08-21T00:34:12;99196.97;;;19.25;73.60
49759;BME280;35654;46.080;11.118;2022-08-21T00:36:38;99193.50;;;19.28;73.72
49759;BME280;35654;46.080;11.118;2022-08-21T00:39:06;99197.25;;;19.19;73.97
49759;BME280;35654;46.080;11.118;2022-08-21T00:41:33;99189.06;;;19.11;74.95
49759;BME280;35654;46.080;11.118;2022-08-21T00:43:58;99188.78;;;19.00;75.86
49759;BME280;35654;46.080;11.118;2022-08-21T00:46:24;99183.13;;;18.97;76.11
49759;BME280;35654;46.080;11.118;2022-08-21T00:48:49;99185.91;;;18.97;76.17
49759;BME280;35654;46.080;11.118;2022-08-21T00:51:30;99177.59;;;18.97;75.72
49759;BME280;35654;46.080;11.118;2022-08-21T00:54:01;99176.34;;;18.94;75.25
49759;BME280;35654;46.080;11.118;2022-08-21T00:56:27;99175.97;;;18.96;72.95
49759;BME280;35654;46.080;11.118;2022-08-21T00:58:53;99171.50;;;18.91;71.84
49759;BME280;35654;46.080;11.118;2022-08-21T01:01:21;99164.53;;;18.97;72.59
49759;BME280;35654;46.080;11.118;2022-08-21T01:03:47;99168.56;;;19.00;71.61
49759;BME280;35654;46.080;11.118;2022-08-21T01:06:12;99169.00;;;19.02;72.18
49759;BME280;35654;46.080;11.118;2022-08-21T01:08:38;99168.91;;;18.98;73.15
49759;BME280;35654;46.080;11.118;2022-08-21T01:11:04;99169.63;;;18.95;73.72
49759;BME280;35654;46.080;11.118;2022-08-21T01:13:32;99165.94;;;18.91;73.72
49759;BME280;35654;46.080;11.118;2022-08-21T01:16:00;99168.72;;;18.91;71.88
49759;BME280;35654;46.080;11.118;2022-08-21T01:18:28;99177.16;;;18.95;71.11
49759;BME280;35654;46.080;11.118;2022-08-21T01:23:28;99160.50;;;18.95;70.80
49759;BME280;35654;46.080;11.118;2022-08-21T01:25:53;99165.94;;;18.91;70.31
49759;BME280;35654;46.080;11.118;2022-08-21T01:28:19;99159.59;;;18.91;70.18
49759;BME280;35654;46.080;11.118;2022-08-21T01:30:46;99162.03;;;18.92;70.06
49759;BME280;35654;46.080;11.118;2022-08-21T01:33:12;99160.50;;;18.95;69.70
49759;BME280;35654;46.080;11.118;2022-08-21T01:35:37;99160.94;;;18.97;69.60
49759;BME280;35654;46.080;11.118;2022-08-21T01:38:03;99161.75;;;18.97;69.33
49759;BME280;35654;46.080;11.118;2022-08-21T01:40:29;99162.19;;;18.99;68.91
49759;BME280;35654;46.080;11.118;2022-08-21T01:42:54;99152.78;;;19.04;68.40
49759;BME280;35654;46.080;11.118;2022-08-21T01:45:20;99158.44;;;19.07;68.04
49759;BME280;35654;46.080;11.118;2022-08-21T01:47:46;99158.44;;;19.07;68.01
49759;BME280;35654;46.080;11.118;2022-08-21T01:50:15;99152.09;;;19.07;67.45
49759;BME280;35654;46.080;11.118;2022-08-21T01:52:41;99154.41;;;19.05;67.56
49759;BME280;35654;46.080;11.118;2022-08-21T01:55:09;99152.91;;;19.07;67.71
49759;BME280;35654;46.080;11.118;2022-08-21T01:57:35;99153.00;;;19.11;67.96
49759;BME280;35654;46.080;11.118;2022-08-21T02:00:00;99155.59;;;19.19;67.41
49759;BME280;35654;46.080;11.118;2022-08-21T02:02:26;99152.47;;;19.21;67.19
49759;BME280;35654;46.080;11.118;2022-08-21T02:04:51;99154.44;;;19.21;67.28
49759;BME280;35654;46.080;11.118;2022-08-21T02:07:17;99163.03;;;19.15;67.58
49759;BME280;35654;46.080;11.118;2022-08-21T02:09:43;99156.94;;;19.10;67.98
49759;BME280;35654;46.080;11.118;2022-08-21T02:12:10;99151.66;;;19.05;68.89
49759;BME280;35654;46.080;11.118;2022-08-21T02:14:36;99153.97;;;19.03;69.14
49759;BME280;35654;46.080;11.118;2022-08-21T02:17:02;99153.53;;;19.01;69.18
49759;BME280;35654;46.080;11.118;2022-08-21T02:19:28;99155.41;;;18.97;69.30
49759;BME280;35654;46.080;11.118;2022-08-21T02:21:54;99158.88;;;18.94;69.24
49759;BME280;35654;46.080;11.118;2022-08-21T02:24:19;99165.84;;;18.88;69.41
49759;BME280;35654;46.080;11.118;2022-08-21T02:26:45;99161.53;;;18.90;69.62
49759;BME280;35654;46.080;11.118;2022-08-21T02:29:10;99161.00;;;18.85;69.52
49759;BME280;35654;46.080;11.118;2022-08-21T02:31:36;99157.34;;;18.81;69.86
49759;BME280;35654;46.080;11.118;2022-08-21T02:34:01;99151.69;;;18.77;69.95
49759;BME280;35654;46.080;11.118;2022-08-21T02:36:27;99156.78;;;18.75;70.06
49759;BME280;35654;46.080;11.118;2022-08-21T02:38:52;99168.31;;;18.77;70.54
49759;BME280;35654;46.080;11.118;2022-08-21T02:41:20;99163.59;;;18.78;70.85
49759;BME280;35654;46.080;11.118;2022-08-21T02:43:46;99164.66;;;18.73;70.87
49759;BME280;35654;46.080;11.118;2022-08-21T02:46:14;99160.16;;;18.69;71.06
49759;BME280;35654;46.080;11.118;2022-08-21T02:48:40;99161.13;;;18.60;71.43
49759;BME280;35654;46.080;11.118;2022-08-21T02:51:16;99158.59;;;18.55;71.86
49759;BME280;35654;46.080;11.118;2022-08-21T02:53:43;99168.06;;;18.54;71.36
49759;BME280;35654;46.080;11.118;2022-08-21T02:56:10;99162.88;;;18.53;72.22
49759;BME280;35654;46.080;11.118;2022-08-21T02:58:39;99162.31;;;18.47;72.38
49759;BME280;35654;46.080;11.118;2022-08-21T03:01:06;99162.56;;;18.42;72.42
49759;BME280;35654;46.080;11.118;2022-08-21T03:03:36;99170.38;;;18.40;72.64
49759;BME280;35654;46.080;11.118;2022-08-21T03:06:04;99166.91;;;18.43;72.89
49759;BME280;35654;46.080;11.118;2022-08-21T03:08:30;99173.66;;;18.42;72.80
49759;BME280;35654;46.080;11.118;2022-08-21T03:10:56;99168.09;;;18.42;72.65
49759;BME280;35654;46.080;11.118;2022-08-21T03:13:22;99163.94;;;18.36;73.09
49759;BME280;35654;46.080;11.118;2022-08-21T03:15:48;99171.34;;;18.32;72.53
49759;BME280;35654;46.080;11.118;2022-08-21T03:18:15;99169.28;;;18.29;73.36
49759;BME280;35654;46.080;11.118;2022-08-21T03:20:42;99177.13;;;18.27;72.97
49759;BME280;35654;46.080;11.118;2022-08-21T03:23:08;99184.31;;;18.28;72.73
49759;BME280;35654;46.080;11.118;2022-08-21T03:25:34;99187.28;;;18.23;72.52
49759;BME280;35654;46.080;11.118;2022-08-21T03:28:02;99182.56;;;18.24;73.00
49759;BME280;35654;46.080;11.118;2022-08-21T03:30:29;99184.06;;;18.21;72.63
49759;BME280;35654;46.080;11.118;2022-08-21T03:32:56;99180.84;;;18.19;72.97
49759;BME280;35654;46.080;11.118;2022-08-21T03:35:22;99183.88;;;18.14;72.90
49759;BME280;35654;46.080;11.118;2022-08-21T03:37:47;99178.22;;;18.11;72.92
49759;BME280;35654;46.080;11.118;2022-08-21T03:40:16;99165.41;;;18.06;73.27
49759;BME280;35654;46.080;11.118;2022-08-21T03:42:42;99173.16;;;18.00;73.23
49759;BME280;35654;46.080;11.118;2022-08-21T03:45:08;99169.91;;;17.98;73.42
49759;BME280;35654;46.080;11.118;2022-08-21T03:47:33;99172.34;;;18.00;73.45
49759;BME280;35654;46.080;11.118;2022-08-21T03:50:00;99179.47;;;18.01;73.78
49759;BME280;35654;46.080;11.118;2022-08-21T03:52:25;99166.00;;;17.99;73.57
49759;BME280;35654;46.080;11.118;2022-08-21T03:54:51;99181.47;;;18.00;74.09
49759;BME280;35654;46.080;11.118;2022-08-21T03:57:17;99176.63;;;17.97;74.35
49759;BME280;35654;46.080;11.118;2022-08-21T03:59:43;99180.19;;;17.98;74.24
49759;BME280;35654;46.080;11.118;2022-08-21T04:02:09;99183.66;;;17.95;74.49
49759;BME280;35654;46.080;11.118;2022-08-21T04:04:35;99182.03;;;17.94;74.62
49759;BME280;35654;46.080;11.118;2022-08-21T04:07:01;99178.91;;;17.95;74.18
49759;BME280;35654;46.080;11.118;2022-08-21T04:09:27;99179.28;;;17.94;74.24
49759;BME280;35654;46.080;11.118;2022-08-21T04:11:53;99180.78;;;17.91;74.50
49759;BME280;35654;46.080;11.118;2022-08-21T04:14:19;99178.81;;;17.92;74.50
49759;BME280;35654;46.080;11.118;2022-08-21T04:16:44;99179.03;;;17.87;75.01
49759;BME280;35654;46.080;11.118;2022-08-21T04:19:11;99187.34;;;17.87;75.04
49759;BME280;35654;46.080;11.118;2022-08-21T04:21:38;99184.00;;;17.81;74.89
49759;BME280;35654;46.080;11.118;2022-08-21T04:24:04;99184.38;;;17.80;75.11
49759;BME280;35654;46.080;11.118;2022-08-21T04:26:30;99189.53;;;17.81;74.82
49759;BME280;35654;46.080;11.118;2022-08-21T04:28:57;99182.50;;;17.84;74.57
49759;BME280;35654;46.080;11.118;2022-08-21T04:31:23;99185.63;;;17.82;74.50
49759;BME280;35654;46.080;11.118;2022-08-21T04:33:49;99191.28;;;17.86;74.08
49759;BME280;35654;46.080;11.118;2022-08-21T04:36:15;99189.44;;;17.90;73.31
49759;BME280;35654;46.080;11.118;2022-08-21T04:38:41;99196.34;;;17.96;72.83
49759;BME280;35654;46.080;11.118;2022-08-21T04:41:06;99194.03;;;17.98;73.04
49759;BME280;35654;46.080;11.118;2022-08-21T04:43:32;99197.63;;;17.98;72.68
49759;BME280;35654;46.080;11.118;2022-08-21T04:45:57;99194.16;;;18.01;72.55
49759;BME280;35654;46.080;11.118;2022-08-21T04:48:25;99200.13;;;18.03;72.44
49759;BME280;35654;46.080;11.118;2022-08-21T04:50:58;99203.03;;;18.07;72.13
49759;BME280;35654;46.080;11.118;2022-08-21T04:56:03;99206.75;;;18.11;72.47
49759;BME280;35654;46.080;11.118;2022-08-21T04:58:30;99201.88;;;18.08;73.10
49759;BME280;35654;46.080;11.118;2022-08-21T05:00:58;99209.84;;;18.10;73.01
49759;BME280;35654;46.080;11.118;2022-08-21T05:03:23;99208.25;;;18.09;72.76
49759;BME280;35654;46.080;11.118;2022-08-21T05:05:50;99210.06;;;18.04;72.75
49759;BME280;35654;46.080;11.118;2022-08-21T05:08:19;99210.53;;;18.07;73.18
49759;BME280;35654;46.080;11.118;2022-08-21T05:10:46;99219.31;;;18.09;72.99
49759;BME280;35654;46.080;11.118;2022-08-21T05:13:13;99219.78;;;18.11;72.38
49759;BME280;35654;46.080;11.118;2022-08-21T05:15:39;99215.38;;;18.10;72.31
49759;BME280;35654;46.080;11.118;2022-08-21T05:18:06;99219.31;;;18.09;72.08
49759;BME280;35654;46.080;11.118;2022-08-21T05:20:32;99215.13;;;18.15;71.90
49759;BME280;35654;46.080;11.118;2022-08-21T05:23:00;99215.50;;;18.13;71.78
49759;BME280;35654;46.080;11.118;2022-08-21T05:25:26;99218.97;;;18.22;71.29
49759;BME280;35654;46.080;11.118;2022-08-21T05:27:52;99220.22;;;18.25;71.44
49759;BME280;35654;46.080;11.118;2022-08-21T05:30:18;99215.44;;;18.37;70.86
49759;BME280;35654;46.080;11.118;2022-08-21T05:32:43;99211.97;;;18.40;70.57
49759;BME280;35654;46.080;11.118;2022-08-21T05:35:09;99212.09;;;18.44;70.49
49759;BME280;35654;46.080;11.118;2022-08-21T05:37:35;99216.38;;;18.53;70.08
49759;BME280;35654;46.080;11.118;2022-08-21T05:40:01;99207.34;;;18.56;69.46
49759;BME280;35654;46.080;11.118;2022-08-21T05:42:27;99220.50;;;18.59;69.38
49759;BME280;35654;46.080;11.118;2022-08-21T05:44:53;99218.09;;;18.58;69.22
49759;BME280;35654;46.080;11.118;2022-08-21T05:47:18;99221.44;;;18.64;69.07
49759;BME280;35654;46.080;11.118;2022-08-21T05:49:44;99216.44;;;18.69;68.75
49759;BME280;35654;46.080;11.118;2022-08-21T05:52:09;99212.59;;;18.74;68.03
49759;BME280;35654;46.080;11.118;2022-08-21T05:54:36;99208.16;;;18.85;67.68
49759;BME280;35654;46.080;11.118;2022-08-21T05:57:02;99209.06;;;18.89;67.11
49759;BME280;35654;46.080;11.118;2022-08-21T05:59:28;99222.69;;;18.94;67.18
49759;BME280;35654;46.080;11.118;2022-08-21T06:01:53;99220.56;;;19.03;67.06
49759;BME280;35654;46.080;11.118;2022-08-21T06:04:19;99223.53;;;19.10;66.25
49759;BME280;35654;46.080;11.118;2022-08-21T06:06:44;99220.00;;;19.25;65.56
49759;BME280;35654;46.080;11.118;2022-08-21T06:09:10;99214.19;;;19.30;65.75
49759;BME280;35654;46.080;11.118;2022-08-21T06:11:35;99210.44;;;19.38;65.31
49759;BME280;35654;46.080;11.118;2022-08-21T06:14:00;99209.56;;;19.50;64.46
49759;BME280;35654;46.080;11.118;2022-08-21T06:16:29;99201.88;;;19.59;64.22
49759;BME280;35654;46.080;11.118;2022-08-21T06:18:55;99206.00;;;19.65;63.62
49759;BME280;35654;46.080;11.118;2022-08-21T06:21:24;99196.94;;;19.68;63.46
49759;BME280;35654;46.080;11.118;2022-08-21T06:23:50;99202.56;;;19.71;63.14
49759;BME280;35654;46.080;11.118;2022-08-21T06:26:17;99198.47;;;19.81;62.85
49759;BME280;35654;46.080;11.118;2022-08-21T06:28:43;99203.00;;;19.89;62.40
49759;BME280;35654;46.080;11.118;2022-08-21T06:31:15;99199.16;;;19.94;62.18
49759;BME280;35654;46.080;11.118;2022-08-21T06:33:42;99197.19;;;19.94;62.18
49759;BME280;35654;46.080;11.118;2022-08-21T06:36:07;99197.28;;;19.98;61.68
49759;BME280;35654;46.080;11.118;2022-08-21T06:38:33;99200.56;;;20.03;61.27
49759;BME280;35654;46.080;11.118;2022-08-21T06:40:59;99199.03;;;20.06;61.27
49759;BME280;35654;46.080;11.118;2022-08-21T06:43:24;99199.66;;;20.15;61.35
49759;BME280;35654;46.080;11.118;2022-08-21T06:45:50;99200.25;;;20.24;61.16
49759;BME280;35654;46.080;11.118;2022-08-21T06:48:15;99188.94;;;20.32;61.01
49759;BME280;35654;46.080;11.118;2022-08-21T06:50:41;99195.13;;;20.42;60.92
49759;BME280;35654;46.080;11.118;2022-08-21T06:53:12;99192.22;;;20.54;60.73
49759;BME280;35654;46.080;11.118;2022-08-21T06:55:38;99190.25;;;20.54;59.73
49759;BME280;35654;46.080;11.118;2022-08-21T06:58:05;99190.75;;;20.60;60.51
49759;BME280;35654;46.080;11.118;2022-08-21T07:00:31;99192.94;;;20.70;60.14
49759;BME280;35654;46.080;11.118;2022-08-21T07:02:57;99188.03;;;20.82;59.53
49759;BME280;35654;46.080;11.118;2022-08-21T07:05:26;99188.91;;;20.86;58.82
49759;BME280;35654;46.080;11.118;2022-08-21T07:07:52;99185.00;;;20.91;57.11
49759;BME280;35654;46.080;11.118;2022-08-21T07:10:17;99189.09;;;20.97;57.57
49759;BME280;35654;46.080;11.118;2022-08-21T07:12:43;99193.75;;;21.09;58.02
49759;BME280;35654;46.080;11.118;2022-08-21T07:15:09;99192.78;;;21.20;57.74
49759;BME280;35654;46.080;11.118;2022-08-21T07:17:35;99177.38;;;21.26;57.69
49759;BME280;35654;46.080;11.118;2022-08-21T07:20:00;99179.47;;;21.33;57.41
49759;BME280;35654;46.080;11.118;2022-08-21T07:22:26;99182.75;;;21.38;55.94
49759;BME280;35654;46.080;11.118;2022-08-21T07:24:53;99173.66;;;21.41;55.61
49759;BME280;35654;46.080;11.118;2022-08-21T07:27:18;99168.88;;;21.42;55.82
49759;BME280;35654;46.080;11.118;2022-08-21T07:29:44;99173.91;;;21.56;56.25
49759;BME280;35654;46.080;11.118;2022-08-21T07:32:09;99166.41;;;21.60;55.64
49759;BME280;35654;46.080;11.118;2022-08-21T07:34:35;99166.53;;;21.67;54.91
49759;BME280;35654;46.080;11.118;2022-08-21T07:37:00;99171.50;;;21.80;55.25
49759;BME280;35654;46.080;11.118;2022-08-21T07:39:25;99157.00;;;21.90;54.68
49759;BME280;35654;46.080;11.118;2022-08-21T07:41:51;99160.69;;;21.98;54.74
49759;BME280;35654;46.080;11.118;2022-08-21T07:44:17;99154.41;;;22.04;54.49
49759;BME280;35654;46.080;11.118;2022-08-21T07:46:42;99156.19;;;22.16;53.67
49759;BME280;35654;46.080;11.118;2022-08-21T07:49:08;99150.34;;;22.25;53.06
49759;BME280;35654;46.080;11.118;2022-08-21T07:51:33;99145.25;;;22.34;52.70
49759;BME280;35654;46.080;11.118;2022-08-21T07:53:59;99141.00;;;22.43;53.06
49759;BME280;35654;46.080;11.118;2022-08-21T07:56:25;99144.78;;;22.58;52.93
49759;BME280;35654;46.080;11.118;2022-08-21T07:58:51;99128.47;;;22.60;52.01
49759;BME280;35654;46.080;11.118;2022-08-21T08:01:17;99133.38;;;22.70;51.93
49759;BME280;35654;46.080;11.118;2022-08-21T08:03:43;99131.50;;;22.81;51.96
49759;BME280;35654;46.080;11.118;2022-08-21T08:06:10;99125.25;;;22.91;51.11
49759;BME280;35654;46.080;11.118;2022-08-21T08:08:38;99122.16;;;23.00;50.46
49759;BME280;35654;46.080;11.118;2022-08-21T08:11:05;99121.41;;;23.03;49.77
49759;BME280;35654;46.080;11.118;2022-08-21T08:13:30;99114.25;;;23.09;49.75
49759;BME280;35654;46.080;11.118;2022-08-21T08:15:56;99105.59;;;23.21;49.16
49759;BME280;35654;46.080;11.118;2022-08-21T08:18:21;99099.25;;;23.24;49.36
49759;BME280;35654;46.080;11.118;2022-08-21T08:20:47;99096.84;;;23.26;49.34
49759;BME280;35654;46.080;11.118;2022-08-21T08:23:13;99084.16;;;23.32;48.74
49759;BME280;35654;46.080;11.118;2022-08-21T08:25:39;99082.31;;;23.47;49.29
49759;BME280;35654;46.080;11.118;2022-08-21T08:28:05;99083.22;;;23.61;49.05
49759;BME280;35654;46.080;11.118;2022-08-21T08:30:31;99076.53;;;23.76;48.77
49759;BME280;35654;46.080;11.118;2022-08-21T08:32:57;99069.03;;;23.91;48.50
49759;BME280;35654;46.080;11.118;2022-08-21T08:35:23;99065.88;;;24.00;47.64
49759;BME280;35654;46.080;11.118;2022-08-21T08:37:50;99056.72;;;24.03;47.00
49759;BME280;35654;46.080;11.118;2022-08-21T08:40:30;99052.00;;;24.14;47.29
49759;BME280;35654;46.080;11.118;2022-08-21T08:42:58;99050.44;;;24.20;46.21
49759;BME280;35654;46.080;11.118;2022-08-21T08:45:24;99053.28;;;24.34;46.86
49759;BME280;35654;46.080;11.118;2022-08-21T08:48:06;99042.06;;;24.27;46.26
49759;BME280;35654;46.080;11.118;2022-08-21T08:50:54;99046.50;;;24.39;46.34
49759;BME280;35654;46.080;11.118;2022-08-21T08:53:41;99038.53;;;24.55;46.32
49759;BME280;35654;46.080;11.118;2022-08-21T08:56:09;99034.59;;;24.77;45.84
49759;BME280;35654;46.080;11.118;2022-08-21T08:58:39;99031.00;;;24.76;45.42
49759;BME280;35654;46.080;11.118;2022-08-21T09:01:16;99027.41;;;24.76;44.36
49759;BME280;35654;46.080;11.118;2022-08-21T09:03:44;99025.44;;;24.83;44.62
49759;BME280;35654;46.080;11.118;2022-08-21T09:18:42;98997.38;;;25.72;41.67
49759;BME280;35654;46.080;11.118;2022-08-21T09:27:07;98985.25;;;26.03;40.43
49759;BME280;35654;46.080;11.118;2022-08-21T09:29:37;98990.84;;;26.10;40.07
49759;BME280;35654;46.080;11.118;2022-08-21T09:32:14;98986.44;;;26.13;39.91
49759;BME280;35654;46.080;11.118;2022-08-21T09:34:58;98980.00;;;26.19;39.77
49759;BME280;35654;46.080;11.118;2022-08-21T09:37:25;98975.13;;;26.30;39.59
49759;BME280;35654;46.080;11.118;2022-08-21T09:39:51;98958.75;;;26.11;39.95
49759;BME280;35654;46.080;11.118;2022-08-21T09:42:27;98956.28;;;26.34;39.78
49759;BME280;35654;46.080;11.118;2022-08-21T09:45:10;98960.63;;;26.46;38.40
49759;BME280;35654;46.080;11.118;2022-08-21T09:47:36;98950.50;;;26.59;38.05
49759;BME280;35654;46.080;11.118;2022-08-21T09:50:09;98946.78;;;26.73;38.24
49759;BME280;35654;46.080;11.118;2022-08-21T09:52:43;98943.97;;;26.80;36.54
49759;BME280;35654;46.080;11.118;2022-08-21T09:55:15;98936.97;;;26.98;36.75
49759;BME280;35654;46.080;11.118;2022-08-21T09:58:01;98935.56;;;27.21;36.27
49759;BME280;35654;46.080;11.118;2022-08-21T10:00:29;98938.16;;;27.42;35.27
49759;BME280;35654;46.080;11.118;2022-08-21T10:03:18;98932.41;;;27.56;35.03
49759;BME280;35654;46.080;11.118;2022-08-21T10:06:00;98922.03;;;27.49;33.76
49759;BME280;35654;46.080;11.118;2022-08-21T10:08:28;98920.50;;;27.75;34.59
49759;BME280;35654;46.080;11.118;2022-08-21T10:10:57;98919.63;;;27.82;35.76
49759;BME280;35654;46.080;11.118;2022-08-21T10:18:50;98903.22;;;28.10;33.10
49759;BME280;35654;46.080;11.118;2022-08-21T10:21:40;98906.19;;;27.96;33.97
49759;BME280;35654;46.080;11.118;2022-08-21T10:24:20;98897.44;;;28.21;33.26
49759;BME280;35654;46.080;11.118;2022-08-21T10:35:30;98882.16;;;28.45;31.90
49759;BME280;35654;46.080;11.118;2022-08-21T10:51:55;98873.03;;;29.34;29.37
49759;BME280;35654;46.080;11.118;2022-08-21T10:54:37;98871.28;;;29.60;30.24
49759;BME280;35654;46.080;11.118;2022-08-21T10:57:16;98868.00;;;29.84;28.81
49759;BME280;35654;46.080;11.118;2022-08-21T10:59:53;98860.41;;;30.17;27.82
49759;BME280;35654;46.080;11.118;2022-08-21T11:02:22;98855.41;;;31.05;27.22
49759;BME280;35654;46.080;11.118;2022-08-21T11:05:17;98845.41;;;34.62;22.14
49759;BME280;35654;46.080;11.118;2022-08-21T11:07:55;98847.78;;;37.16;19.16
49759;BME280;35654;46.080;11.118;2022-08-21T11:10:40;98847.09;;;39.63;16.54
49759;BME280;35654;46.080;11.118;2022-08-21T11:15:50;98840.28;;;39.80;15.61
49759;BME280;35654;46.080;11.118;2022-08-21T11:23:52;98824.63;;;42.26;13.34
49759;BME280;35654;46.080;11.118;2022-08-21T11:45:45;98788.66;;;42.83;12.07
49759;BME280;35654;46.080;11.118;2022-08-21T11:51:00;98778.50;;;41.38;12.50
49759;BME280;35654;46.080;11.118;2022-08-21T11:53:38;98775.41;;;41.86;12.19
49759;BME280;35654;46.080;11.118;2022-08-21T11:56:13;98780.34;;;42.52;11.92
49759;BME280;35654;46.080;11.118;2022-08-21T11:58:45;98773.69;;;41.18;13.02
49759;BME280;35654;46.080;11.118;2022-08-21T12:01:22;98760.31;;;40.93;12.13
49759;BME280;35654;46.080;11.118;2022-08-21T12:04:04;98755.03;;;41.95;12.04
49759;BME280;35654;46.080;11.118;2022-08-21T12:06:35;98755.03;;;41.78;12.36
49759;BME280;35654;46.080;11.118;2022-08-21T12:09:07;98750.66;;;40.11;12.92
49759;BME280;35654;46.080;11.118;2022-08-21T12:11:50;98744.44;;;38.89;13.79
49759;BME280;35654;46.080;11.118;2022-08-21T12:14:17;98741.97;;;39.23;14.40
49759;BME280;35654;46.080;11.118;2022-08-21T12:16:46;98744.00;;;39.99;13.54
49759;BME280;35654;46.080;11.118;2022-08-21T12:24:20;98734.81;;;43.24;11.50
49759;BME280;35654;46.080;11.118;2022-08-21T12:27:29;98723.97;;;42.95;10.88
49759;BME280;35654;46.080;11.118;2022-08-21T12:29:59;98730.22;;;43.45;10.69
49759;BME280;35654;46.080;11.118;2022-08-21T12:32:31;98715.72;;;41.19;12.21
49759;BME280;35654;46.080;11.118;2022-08-21T12:35:17;98717.72;;;43.32;10.81
49759;BME280;35654;46.080;11.118;2022-08-21T12:37:47;98717.09;;;41.46;10.61
49759;BME280;35654;46.080;11.118;2022-08-21T12:42:46;98699.88;;;42.18;11.09
49759;BME280;35654;46.080;11.118;2022-08-21T12:45:31;98699.09;;;41.79;11.54
49759;BME280;35654;46.080;11.118;2022-08-21T12:48:06;98699.91;;;39.91;12.06
49759;BME280;35654;46.080;11.118;2022-08-21T12:50:41;98686.66;;;39.99;12.82
49759;BME280;35654;46.080;11.118;2022-08-21T12:55:47;98676.69;;;40.26;13.23
49759;BME280;35654;46.080;11.118;2022-08-21T12:58:22;98672.16;;;41.49;12.53
49759;BME280;35654;46.080;11.118;2022-08-21T13:00:51;98662.94;;;40.41;12.31
49759;BME280;35654;46.080;11.118;2022-08-21T13:03:17;98663.75;;;41.17;11.84
49759;BME280;35654;46.080;11.118;2022-08-21T13:05:43;98660.59;;;42.26;10.46
49759;BME280;35654;46.080;11.118;2022-08-21T13:08:11;98662.88;;;42.45;10.31
49759;BME280;35654;46.080;11.118;2022-08-21T13:10:39;98662.59;;;42.59;10.75
49759;BME280;35654;46.080;11.118;2022-08-21T13:13:09;98656.69;;;41.18;12.56
49759;BME280;35654;46.080;11.118;2022-08-21T13:15:38;98653.53;;;40.35;12.54
49759;BME280;35654;46.080;11.118;2022-08-21T13:18:05;98649.00;;;38.52;13.37
49759;BME280;35654;46.080;11.118;2022-08-21T13:23:00;98649.75;;;40.12;12.48
49759;BME280;35654;46.080;11.118;2022-08-21T13:25:29;98636.97;;;39.71;12.38
49759;BME280;35654;46.080;11.118;2022-08-21T13:28:07;98644.66;;;39.03;12.85
49759;BME280;35654;46.080;11.118;2022-08-21T13:30:37;98633.63;;;40.80;12.36
49759;BME280;35654;46.080;11.118;2022-08-21T13:33:05;98629.53;;;41.31;11.58
49759;BME280;35654;46.080;11.118;2022-08-21T13:35:49;98628.19;;;43.24;10.54
49759;BME280;35654;46.080;11.118;2022-08-21T13:38:17;98624.06;;;43.79;10.08
49759;BME280;35654;46.080;11.118;2022-08-21T13:40:54;98617.50;;;43.14;10.35
49759;BME280;35654;46.080;11.118;2022-08-21T13:43:32;98615.25;;;43.66;10.03
49759;BME280;35654;46.080;11.118;2022-08-21T13:45:59;98608.69;;;42.60;10.64
49759;BME280;35654;46.080;11.118;2022-08-21T13:48:28;98618.25;;;43.20;10.50
49759;BME280;35654;46.080;11.118;2022-08-21T13:50:55;98610.06;;;42.36;11.08
49759;BME280;35654;46.080;11.118;2022-08-21T13:53:36;98604.53;;;40.44;12.15
49759;BME280;35654;46.080;11.118;2022-08-21T13:56:33;98607.13;;;42.48;11.17
49759;BME280;35654;46.080;11.118;2022-08-21T13:59:00;98601.72;;;42.27;11.27
49759;BME280;35654;46.080;11.118;2022-08-21T14:01:36;98589.97;;;43.83;9.37
49759;BME280;35654;46.080;11.118;2022-08-21T14:04:16;98599.06;;;43.28;10.37
49759;BME280;35654;46.080;11.118;2022-08-21T14:06:44;98589.88;;;41.51;11.70
49759;BME280;35654;46.080;11.118;2022-08-21T14:09:32;98588.28;;;41.11;11.78
49759;BME280;35654;46.080;11.118;2022-08-21T14:12:02;98591.94;;;41.17;11.85
49759;BME280;35654;46.080;11.118;2022-08-21T14:14:32;98575.66;;;40.53;11.39
49759;BME280;35654;46.080;11.118;2022-08-21T14:17:02;98583.47;;;42.08;11.16
49759;BME280;35654;46.080;11.118;2022-08-21T14:19:44;98578.72;;;42.22;11.03
49759;BME280;35654;46.080;11.118;2022-08-21T14:22:39;98573.78;;;42.17;10.57
49759;BME280;35654;46.080;11.118;2022-08-21T14:25:26;98578.09;;;41.16;10.54
49759;BME280;35654;46.080;11.118;2022-08-21T14:28:32;98569.75;;;41.51;10.90
49759;BME280;35654;46.080;11.118;2022-08-21T14:30:59;98568.91;;;41.90;10.93
49759;BME280;35654;46.080;11.118;2022-08-21T14:33:36;98560.78;;;40.66;11.24